Kouka Maru — JD2844 — position and weather

sailwx.info

Track history (hours):
 
Tides and Currents Weather Stations Pressure Air Temp Water Temp Dewpoint Dewpoint Depression Visibility Wind Speed Wind Dir Waves Ship Positions

Kouka Maru

Last reported at 2017-Nov-16 19:45 UTC. Time now 2017-Nov-18 02:58 UTC.
Position N 35°37' E 139°58'.

Length 68 m; draft 4.2 m.

MMSI: 431000836.

Date/timePositionNaut miles runAvg speedWind from/ knotsBaromVisibWave heightAir tempDewpointWater temp
2017-Nov-16 19:45N 35°37' E 139°58'510.3
2017-Nov-16 19:18N 35°33' E 139°55'310.4
2017-Nov-16 18:59N 35°30' E 139°53'510.1
2017-Nov-16 18:30N 35°26' E 139°49'510.1
2017-Nov-16 18:00N 35°22' E 139°45'5 9.5
2017-Nov-16 17:30N 35°18' E 139°45'510.2
2017-Nov-16 17:00N 35°13' E 139°47'510.0
2017-Nov-16 16:30N 35°08' E 139°45'5 9.7
2017-Nov-16 16:00N 35°04' E 139°43'5 9.8
2017-Nov-16 15:30N 35°00' E 139°38'237 9.3
2017-Nov-15 13:57N 33°60' E 135°01'511.6
2017-Nov-15 13:29N 34°05' E 134°60'611.6
2017-Nov-15 13:00N 34°10' E 134°59'1411.3
2017-Nov-15 11:45N 34°25' E 135°01'310.8
2017-Nov-15 11:26N 34°28' E 135°01'510.6
2017-Nov-15 11:00N 34°32' E 135°02'4 8.2
2017-Nov-15 10:28N 34°37' E 135°01'10 8.4
2017-Nov-15 09:13N 34°40' E 134°49'  
2017-Nov-11 23:25N 34°37' E 134°54'510.1
2017-Nov-11 22:56N 34°38' E 135°00'4 9.9
2017-Nov-11 22:30N 34°35' E 135°05'510.4
2017-Nov-11 21:59N 34°30' E 135°04'1810.4
2017-Nov-11 20:18N 34°13' E 134°60'510.2
2017-Nov-11 19:45N 34°07' E 135°00'6 0.1
2017-Nov-09 22:52N 34°02' E 135°02'412.0
2017-Nov-09 22:30N 34°06' E 135°02'611.6
2017-Nov-09 22:00N 34°12' E 135°02'712.0
2017-Nov-09 21:28N 34°18' E 135°04'612.2
2017-Nov-09 20:58N 34°24' E 135°07'612.4
2017-Nov-09 20:30N 34°29' E 135°11'611.8
2017-Nov-09 20:00N 34°34' E 135°14'511.1
2017-Nov-09 19:30N 34°39' E 135°16'3 5.6
2017-Nov-09 19:00N 34°42' E 135°15'0 0.0
2017-Nov-09 18:30N 34°42' E 135°15'0 0.0
2017-Nov-09 18:00N 34°42' E 135°15'0 0.6
2017-Nov-09 17:30N 34°42' E 135°15'1 1.9
2017-Nov-09 17:00N 34°41' E 135°14'0 0.0
2017-Nov-09 16:30N 34°41' E 135°14'0 0.0
2017-Nov-09 16:00N 34°41' E 135°14'0 0.0
2017-Nov-09 15:30N 34°41' E 135°14'0 0.1
2017-Nov-09 15:00N 34°41' E 135°14'0 0.0
2017-Nov-09 14:30N 34°41' E 135°14'0 0.0
2017-Nov-09 13:59N 34°41' E 135°14'0 0.0
2017-Nov-09 13:30N 34°41' E 135°14'0 0.0
2017-Nov-09 13:00N 34°41' E 135°14'0 0.0
2017-Nov-09 12:30N 34°41' E 135°14'0 0.0
2017-Nov-09 12:00N 34°41' E 135°14'0 0.0
2017-Nov-09 11:30N 34°41' E 135°14'0 0.0
2017-Nov-09 11:00N 34°41' E 135°14'0 0.0
2017-Nov-09 10:30N 34°41' E 135°14'0 0.1
2017-Nov-09 10:00N 34°41' E 135°14'0 0.0
2017-Nov-09 09:30N 34°41' E 135°14'0 0.0
2017-Nov-09 09:00N 34°41' E 135°14'0 0.0
2017-Nov-09 08:30N 34°41' E 135°14'0 0.0
2017-Nov-09 08:00N 34°41' E 135°14'0 0.1
2017-Nov-09 07:30N 34°41' E 135°14'0 0.1
2017-Nov-09 06:59N 34°41' E 135°14'0 0.0
2017-Nov-09 06:30N 34°41' E 135°14'0 0.1
2017-Nov-09 06:00N 34°41' E 135°14'0 0.1
2017-Nov-09 05:30N 34°41' E 135°14'0 0.1
2017-Nov-09 05:00N 34°41' E 135°14'0 0.1
2017-Nov-09 04:30N 34°41' E 135°14'0 0.1
2017-Nov-09 04:00N 34°41' E 135°14'1 2.6
2017-Nov-09 03:30N 34°42' E 135°15'0 0.0
2017-Nov-09 03:00N 34°42' E 135°15'0 0.0
2017-Nov-09 02:30N 34°42' E 135°15'0 0.0
2017-Nov-09 02:00N 34°42' E 135°15'0 0.0
2017-Nov-09 01:30N 34°42' E 135°15'0 0.0
2017-Nov-09 01:00N 34°42' E 135°15'0 0.0
2017-Nov-09 00:30N 34°42' E 135°15'0 0.0
2017-Nov-09 00:00N 34°42' E 135°15'0 0.0
2017-Nov-08 23:30N 34°42' E 135°15'0 0.0
2017-Nov-08 23:00N 34°42' E 135°15'0 0.0
2017-Nov-08 22:30N 34°42' E 135°15'0 0.0
2017-Nov-08 22:00N 34°42' E 135°15'0 0.0
2017-Nov-08 21:30N 34°42' E 135°15'0 0.0
2017-Nov-08 21:00N 34°42' E 135°15'0 0.0
2017-Nov-08 20:30N 34°42' E 135°15'0 0.0
2017-Nov-08 19:58N 34°42' E 135°15'0 0.0
2017-Nov-08 19:30N 34°42' E 135°15'0 0.0
2017-Nov-08 19:00N 34°42' E 135°15'0 0.0
2017-Nov-08 18:30N 34°42' E 135°15'0 0.0
2017-Nov-08 18:00N 34°42' E 135°15'0 0.0
2017-Nov-08 17:30N 34°42' E 135°15'0 0.0
2017-Nov-08 17:00N 34°42' E 135°15'0 0.0
2017-Nov-08 16:29N 34°42' E 135°15'0 0.0
2017-Nov-08 16:00N 34°42' E 135°15'0 0.0
2017-Nov-08 15:30N 34°42' E 135°15'0 0.0
2017-Nov-08 15:00N 34°42' E 135°15'0 0.0
2017-Nov-08 14:30N 34°42' E 135°15'0 0.0
2017-Nov-08 14:00N 34°42' E 135°15'0 0.0
2017-Nov-08 13:30N 34°42' E 135°15'0 0.0
2017-Nov-08 13:00N 34°42' E 135°15'0 0.0
2017-Nov-08 12:30N 34°42' E 135°15'0 0.0
2017-Nov-08 12:00N 34°42' E 135°15'0 0.0
2017-Nov-08 11:30N 34°42' E 135°15'0 0.0
2017-Nov-08 11:00N 34°42' E 135°15'0 0.0
2017-Nov-08 10:30N 34°42' E 135°15'0 0.2
2017-Nov-08 10:00N 34°42' E 135°15'0 0.1
2017-Nov-08 09:30N 34°42' E 135°15'0 0.0
2017-Nov-08 09:00N 34°42' E 135°15'0 0.0
2017-Nov-08 08:30N 34°42' E 135°15'0 0.0
2017-Nov-08 08:00N 34°42' E 135°15'0 0.0
2017-Nov-08 07:30N 34°42' E 135°15'0 0.0
2017-Nov-08 07:00N 34°42' E 135°15'0 0.0
2017-Nov-08 06:30N 34°42' E 135°15'0 0.0
2017-Nov-08 06:00N 34°42' E 135°15'0 0.0
2017-Nov-08 05:30N 34°42' E 135°15'0 0.0
2017-Nov-08 05:00N 34°42' E 135°15'0 0.0
2017-Nov-08 04:30N 34°42' E 135°15'0 0.0
2017-Nov-08 04:00N 34°42' E 135°15'1 2.8
2017-Nov-08 03:30N 34°41' E 135°15'4 8.0
2017-Nov-08 03:00N 34°37' E 135°16'4 8.9
2017-Nov-08 02:30N 34°33' E 135°14'611.6
2017-Nov-08 02:00N 34°27' E 135°11'1312.4
2017-Nov-08 00:56N 34°16' E 135°03'512.3
2017-Nov-08 00:30N 34°11' E 135°03'  
Track history (hours):
 
Tides and Currents Weather Stations Pressure Air Temp Water Temp Dewpoint Dewpoint Depression Visibility Wind Speed Wind Dir Waves Ship Positions

Kouka Maru

Last reported at 2017-Nov-16 19:45 UTC. Time now 2017-Nov-18 02:58 UTC.
Position N 35°37' E 139°58'.

Length 68 m; draft 4.2 m.

MMSI: 431000836.

Date/timePositionNaut miles runAvg speedWind from/ knotsBaromVisibWave heightAir tempDewpointWater temp
2017-Nov-16 19:45N 35°37' E 139°58'510.3
2017-Nov-16 19:18N 35°33' E 139°55'310.4
2017-Nov-16 18:59N 35°30' E 139°53'510.1
2017-Nov-16 18:30N 35°26' E 139°49'510.1
2017-Nov-16 18:00N 35°22' E 139°45'5 9.5
2017-Nov-16 17:30N 35°18' E 139°45'510.2
2017-Nov-16 17:00N 35°13' E 139°47'510.0
2017-Nov-16 16:30N 35°08' E 139°45'5 9.7
2017-Nov-16 16:00N 35°04' E 139°43'5 9.8
2017-Nov-16 15:30N 35°00' E 139°38'237 9.3
2017-Nov-15 13:57N 33°60' E 135°01'511.6
2017-Nov-15 13:29N 34°05' E 134°60'611.6
2017-Nov-15 13:00N 34°10' E 134°59'1411.3
2017-Nov-15 11:45N 34°25' E 135°01'310.8
2017-Nov-15 11:26N 34°28' E 135°01'510.6
2017-Nov-15 11:00N 34°32' E 135°02'4 8.2
2017-Nov-15 10:28N 34°37' E 135°01'10 8.4
2017-Nov-15 09:13N 34°40' E 134°49'  
2017-Nov-11 23:25N 34°37' E 134°54'510.1
2017-Nov-11 22:56N 34°38' E 135°00'4 9.9
2017-Nov-11 22:30N 34°35' E 135°05'510.4
2017-Nov-11 21:59N 34°30' E 135°04'1810.4
2017-Nov-11 20:18N 34°13' E 134°60'510.2
2017-Nov-11 19:45N 34°07' E 135°00'6 0.1
2017-Nov-09 22:52N 34°02' E 135°02'412.0
2017-Nov-09 22:30N 34°06' E 135°02'611.6
2017-Nov-09 22:00N 34°12' E 135°02'712.0
2017-Nov-09 21:28N 34°18' E 135°04'612.2
2017-Nov-09 20:58N 34°24' E 135°07'612.4
2017-Nov-09 20:30N 34°29' E 135°11'611.8
2017-Nov-09 20:00N 34°34' E 135°14'511.1
2017-Nov-09 19:30N 34°39' E 135°16'3 5.6
2017-Nov-09 19:00N 34°42' E 135°15'0 0.0
2017-Nov-09 18:30N 34°42' E 135°15'0 0.0
2017-Nov-09 18:00N 34°42' E 135°15'0 0.6
2017-Nov-09 17:30N 34°42' E 135°15'1 1.9
2017-Nov-09 17:00N 34°41' E 135°14'0 0.0
2017-Nov-09 16:30N 34°41' E 135°14'0 0.0
2017-Nov-09 16:00N 34°41' E 135°14'0 0.0
2017-Nov-09 15:30N 34°41' E 135°14'0 0.1
2017-Nov-09 15:00N 34°41' E 135°14'0 0.0
2017-Nov-09 14:30N 34°41' E 135°14'0 0.0
2017-Nov-09 13:59N 34°41' E 135°14'0 0.0
2017-Nov-09 13:30N 34°41' E 135°14'0 0.0
2017-Nov-09 13:00N 34°41' E 135°14'0 0.0
2017-Nov-09 12:30N 34°41' E 135°14'0 0.0
2017-Nov-09 12:00N 34°41' E 135°14'0 0.0
2017-Nov-09 11:30N 34°41' E 135°14'0 0.0
2017-Nov-09 11:00N 34°41' E 135°14'0 0.0
2017-Nov-09 10:30N 34°41' E 135°14'0 0.1
2017-Nov-09 10:00N 34°41' E 135°14'0 0.0
2017-Nov-09 09:30N 34°41' E 135°14'0 0.0
2017-Nov-09 09:00N 34°41' E 135°14'0 0.0
2017-Nov-09 08:30N 34°41' E 135°14'0 0.0
2017-Nov-09 08:00N 34°41' E 135°14'0 0.1
2017-Nov-09 07:30N 34°41' E 135°14'0 0.1
2017-Nov-09 06:59N 34°41' E 135°14'0 0.0
2017-Nov-09 06:30N 34°41' E 135°14'0 0.1
2017-Nov-09 06:00N 34°41' E 135°14'0 0.1
2017-Nov-09 05:30N 34°41' E 135°14'0 0.1
2017-Nov-09 05:00N 34°41' E 135°14'0 0.1
2017-Nov-09 04:30N 34°41' E 135°14'0 0.1
2017-Nov-09 04:00N 34°41' E 135°14'1 2.6
2017-Nov-09 03:30N 34°42' E 135°15'0 0.0
2017-Nov-09 03:00N 34°42' E 135°15'0 0.0
2017-Nov-09 02:30N 34°42' E 135°15'0 0.0
2017-Nov-09 02:00N 34°42' E 135°15'0 0.0
2017-Nov-09 01:30N 34°42' E 135°15'0 0.0
2017-Nov-09 01:00N 34°42' E 135°15'0 0.0
2017-Nov-09 00:30N 34°42' E 135°15'0 0.0
2017-Nov-09 00:00N 34°42' E 135°15'0 0.0
2017-Nov-08 23:30N 34°42' E 135°15'0 0.0
2017-Nov-08 23:00N 34°42' E 135°15'0 0.0
2017-Nov-08 22:30N 34°42' E 135°15'0 0.0
2017-Nov-08 22:00N 34°42' E 135°15'0 0.0
2017-Nov-08 21:30N 34°42' E 135°15'0 0.0
2017-Nov-08 21:00N 34°42' E 135°15'0 0.0
2017-Nov-08 20:30N 34°42' E 135°15'0 0.0
2017-Nov-08 19:58N 34°42' E 135°15'0 0.0
2017-Nov-08 19:30N 34°42' E 135°15'0 0.0
2017-Nov-08 19:00N 34°42' E 135°15'0 0.0
2017-Nov-08 18:30N 34°42' E 135°15'0 0.0
2017-Nov-08 18:00N 34°42' E 135°15'0 0.0
2017-Nov-08 17:30N 34°42' E 135°15'0 0.0
2017-Nov-08 17:00N 34°42' E 135°15'0 0.0
2017-Nov-08 16:29N 34°42' E 135°15'0 0.0
2017-Nov-08 16:00N 34°42' E 135°15'0 0.0
2017-Nov-08 15:30N 34°42' E 135°15'0 0.0
2017-Nov-08 15:00N 34°42' E 135°15'0 0.0
2017-Nov-08 14:30N 34°42' E 135°15'0 0.0
2017-Nov-08 14:00N 34°42' E 135°15'0 0.0
2017-Nov-08 13:30N 34°42' E 135°15'0 0.0
2017-Nov-08 13:00N 34°42' E 135°15'0 0.0
2017-Nov-08 12:30N 34°42' E 135°15'0 0.0
2017-Nov-08 12:00N 34°42' E 135°15'0 0.0
2017-Nov-08 11:30N 34°42' E 135°15'0 0.0
2017-Nov-08 11:00N 34°42' E 135°15'0 0.0
2017-Nov-08 10:30N 34°42' E 135°15'0 0.2
2017-Nov-08 10:00N 34°42' E 135°15'0 0.1
2017-Nov-08 09:30N 34°42' E 135°15'0 0.0
2017-Nov-08 09:00N 34°42' E 135°15'0 0.0
2017-Nov-08 08:30N 34°42' E 135°15'0 0.0
2017-Nov-08 08:00N 34°42' E 135°15'0 0.0
2017-Nov-08 07:30N 34°42' E 135°15'0 0.0
2017-Nov-08 07:00N 34°42' E 135°15'0 0.0
2017-Nov-08 06:30N 34°42' E 135°15'0 0.0
2017-Nov-08 06:00N 34°42' E 135°15'0 0.0
2017-Nov-08 05:30N 34°42' E 135°15'0 0.0
2017-Nov-08 05:00N 34°42' E 135°15'0 0.0
2017-Nov-08 04:30N 34°42' E 135°15'0 0.0
2017-Nov-08 04:00N 34°42' E 135°15'1 2.8
2017-Nov-08 03:30N 34°41' E 135°15'4 8.0
2017-Nov-08 03:00N 34°37' E 135°16'4 8.9
2017-Nov-08 02:30N 34°33' E 135°14'611.6
2017-Nov-08 02:00N 34°27' E 135°11'1312.4
2017-Nov-08 00:56N 34°16' E 135°03'512.3
2017-Nov-08 00:30N 34°11' E 135°03'  

Dump ship's entire track history